createdAt,value
2018-04-29T00:00:32.679Z,81.56
2018-04-29T00:01:33.230Z,81.66
2018-04-29T00:02:33.542Z,82.42
2018-04-29T00:03:33.980Z,83.19
2018-04-29T00:04:34.439Z,82.90
2018-04-29T00:05:34.857Z,83.58
2018-04-29T00:06:35.290Z,83.86
2018-04-29T00:07:35.724Z,84.72
2018-04-29T00:08:36.160Z,85.21
2018-04-29T00:09:36.591Z,85.49
2018-04-29T00:10:37.034Z,86.12
2018-04-29T00:11:37.467Z,85.25
2018-04-29T00:12:37.901Z,85.16
2018-04-29T00:13:38.334Z,85.45
2018-04-29T00:14:38.774Z,85.39
2018-04-29T00:15:39.212Z,85.21
2018-04-29T00:16:39.670Z,84.63
2018-04-29T00:17:40.079Z,84.63
2018-04-29T00:18:40.515Z,85.58
2018-04-29T00:19:40.947Z,84.63
2018-04-29T00:20:41.382Z,84.15
2018-04-29T00:21:41.818Z,85.01
2018-04-29T00:22:42.252Z,85.21
2018-04-29T00:23:42.690Z,85.63
2018-04-29T00:24:43.122Z,85.11
2018-04-29T00:25:43.558Z,83.95
2018-04-29T00:26:43.994Z,83.61
2018-04-29T00:27:44.429Z,83.61
2018-04-29T00:28:44.866Z,84.00
2018-04-29T00:29:45.301Z,83.91
2018-04-29T00:30:45.735Z,84.53
2018-04-29T00:31:46.174Z,84.34
2018-04-29T00:32:46.652Z,84.53
2018-04-29T00:33:47.040Z,84.34
2018-04-29T00:34:47.477Z,84.53
2018-04-29T00:35:47.967Z,84.82
2018-04-29T00:36:48.358Z,84.82
2018-04-29T00:37:48.847Z,85.39
2018-04-29T00:38:49.221Z,85.30
2018-04-29T00:39:49.654Z,84.05
2018-04-29T00:40:50.100Z,83.76
2018-04-29T00:41:50.526Z,85.44
2018-04-29T00:42:50.959Z,84.58
2018-04-29T00:43:51.393Z,84.38
2018-04-29T00:44:51.829Z,84.00
2018-04-29T00:45:52.265Z,84.28
2018-04-29T00:46:52.700Z,84.86
2018-04-29T00:47:53.134Z,86.07
2018-04-29T00:48:53.584Z,86.35
2018-04-29T00:49:54.006Z,86.07
2018-04-29T00:50:54.534Z,84.91
2018-04-29T00:51:54.878Z,84.82
2018-04-29T00:52:55.314Z,84.91
2018-04-29T00:53:55.748Z,86.25
2018-04-29T00:54:56.182Z,85.30
2018-04-29T00:55:56.618Z,85.49
2018-04-29T00:56:57.053Z,86.25
2018-04-29T00:57:57.486Z,86.93
2018-04-29T00:58:57.939Z,85.68
2018-04-29T00:59:58.358Z,85.21
2018-04-29T01:00:58.794Z,84.82
2018-04-29T01:01:59.233Z,87.79
2018-04-29T01:02:59.683Z,89.28
2018-04-29T01:04:00.176Z,88.99
2018-04-29T01:05:00.536Z,89.57
2018-04-29T01:06:01.038Z,90.05
2018-04-29T01:07:02.955Z,90.53
2018-04-29T01:08:01.841Z,90.43
2018-04-29T01:09:02.273Z,91.58
2018-04-29T01:10:02.710Z,91.67
2018-04-29T01:11:03.145Z,91.86
2018-04-29T01:12:05.457Z,91.29
2018-04-29T01:13:04.015Z,91.86
2018-04-29T01:14:04.447Z,91.53
2018-04-29T01:15:04.944Z,92.01
2018-04-29T01:16:05.327Z,92.11
2018-04-29T01:17:05.752Z,92.21
2018-04-29T01:18:06.188Z,91.72
2018-04-29T01:19:06.621Z,92.87
2018-04-29T01:20:07.059Z,92.40
2018-04-29T01:21:07.496Z,92.49
2018-04-29T01:22:07.925Z,92.40
2018-04-29T01:23:08.389Z,92.58
2018-04-29T01:24:08.798Z,92.11
2018-04-29T01:25:09.233Z,92.58
2018-04-29T01:26:09.663Z,92.78
2018-04-29T01:27:10.099Z,91.92
2018-04-29T01:28:10.533Z,91.87
2018-04-29T01:29:10.964Z,91.20
2018-04-29T01:30:11.399Z,91.01
2018-04-29T01:31:11.834Z,90.82
2018-04-29T01:32:12.271Z,90.44
2018-04-29T01:33:12.700Z,89.95
2018-04-29T01:34:13.147Z,89.58
2018-04-29T01:35:13.572Z,89.38
2018-04-29T01:36:14.072Z,89.76
2018-04-29T01:37:14.441Z,89.38
2018-04-29T01:38:14.874Z,89.72
2018-04-29T01:39:15.311Z,90.15
2018-04-29T01:40:15.743Z,90.39
2018-04-29T01:41:16.173Z,89.43
2018-04-29T01:42:16.606Z,90.39
2018-04-29T01:43:17.040Z,89.62
2018-04-29T01:44:17.476Z,89.33
2018-04-29T01:45:17.910Z,89.72
2018-04-29T01:46:18.346Z,89.43
2018-04-29T01:47:18.782Z,89.52
2018-04-29T01:48:19.209Z,89.43
2018-04-29T01:49:19.640Z,89.72
2018-04-29T01:50:20.083Z,89.14
2018-04-29T01:51:20.513Z,88.33
2018-04-29T01:52:20.992Z,88.71
2018-04-29T01:53:21.387Z,88.62
2018-04-29T01:54:21.810Z,89.00
2018-04-29T01:55:22.255Z,89.09
2018-04-29T01:56:22.688Z,89.09
2018-04-29T01:57:23.118Z,89.67
2018-04-29T01:58:23.552Z,90.15
2018-04-29T01:59:23.983Z,90.15
2018-04-29T02:00:24.420Z,89.38
2018-04-29T02:01:24.861Z,89.43
2018-04-29T02:02:25.283Z,89.58
2018-04-29T02:03:25.732Z,89.29
2018-04-29T02:04:26.154Z,89.48
2018-04-29T02:05:26.584Z,89.76
2018-04-29T02:06:27.018Z,89.33
2018-04-29T02:07:27.459Z,89.29
2018-04-29T02:08:27.890Z,89.52
2018-04-29T02:09:28.318Z,89.33
2018-04-29T02:10:28.890Z,89.52
2018-04-29T02:11:29.192Z,89.62
2018-04-29T02:12:29.625Z,89.72
2018-04-29T02:13:30.062Z,89.81
2018-04-29T02:14:30.489Z,89.29
2018-04-29T02:15:30.920Z,90.00
2018-04-29T02:16:31.359Z,89.90
2018-04-29T02:17:31.785Z,89.72
2018-04-29T02:18:32.220Z,90.48
2018-04-29T02:19:32.663Z,90.48
2018-04-29T02:20:33.092Z,89.43
2018-04-29T02:21:33.523Z,89.52
2018-04-29T02:22:33.959Z,89.33
2018-04-29T02:23:34.460Z,89.67
2018-04-29T02:24:34.825Z,89.62
2018-04-29T02:25:35.261Z,90.15
2018-04-29T02:26:35.691Z,89.67
2018-04-29T02:27:36.126Z,89.67
2018-04-29T02:28:36.570Z,89.19
2018-04-29T02:29:36.992Z,89.29
2018-04-29T02:30:37.426Z,89.00
2018-04-29T02:31:37.862Z,89.76
2018-04-29T02:32:38.295Z,89.43
2018-04-29T02:33:38.726Z,89.33
2018-04-29T02:34:39.170Z,89.72
2018-04-29T02:35:39.592Z,89.90
2018-04-29T02:36:40.034Z,89.81
2018-04-29T02:37:40.464Z,90.19
2018-04-29T02:38:40.897Z,90.29
2018-04-29T02:39:41.336Z,90.19
2018-04-29T02:40:43.495Z,90.48
2018-04-29T02:41:42.194Z,90.29
2018-04-29T02:42:42.631Z,90.39
2018-04-29T02:43:43.065Z,90.86
2018-04-29T02:44:43.499Z,90.86
2018-04-29T02:45:43.930Z,90.09
2018-04-29T02:46:44.380Z,90.72
2018-04-29T02:47:44.815Z,90.82
2018-04-29T02:48:45.231Z,90.72
2018-04-29T02:49:45.673Z,90.63
2018-04-29T02:50:46.105Z,90.15
2018-04-29T02:51:46.550Z,90.53
2018-04-29T02:52:46.991Z,90.24
2018-04-29T02:53:47.406Z,90.24
2018-04-29T02:54:47.835Z,90.34
2018-04-29T02:55:48.271Z,90.63
2018-04-29T02:56:48.707Z,90.82
2018-04-29T02:57:49.136Z,90.15
2018-04-29T02:58:49.568Z,90.63
2018-04-29T02:59:50.001Z,90.72
2018-04-29T03:00:50.439Z,90.15
2018-04-29T03:01:50.875Z,90.91
2018-04-29T03:02:51.313Z,90.15
2018-04-29T03:03:51.736Z,90.72
2018-04-29T03:04:52.169Z,90.24
2018-04-29T03:05:52.606Z,90.72
2018-04-29T03:06:53.038Z,90.63
2018-04-29T03:07:53.476Z,90.86
2018-04-29T03:08:53.903Z,90.82
2018-04-29T03:09:54.338Z,90.39
2018-04-29T03:10:54.772Z,90.72
2018-04-29T03:11:55.205Z,90.44
2018-04-29T03:12:55.639Z,90.67
2018-04-29T03:13:56.071Z,90.77
2018-04-29T03:14:56.506Z,90.44
2018-04-29T03:15:56.938Z,90.96
2018-04-29T03:16:57.373Z,90.63
2018-04-29T03:17:57.810Z,90.86
2018-04-29T03:18:58.245Z,90.72
2018-04-29T03:19:58.683Z,91.01
2018-04-29T03:20:59.109Z,90.82
2018-04-29T03:21:59.539Z,90.82
2018-04-29T03:22:59.973Z,90.20
2018-04-29T03:24:00.406Z,90.20
2018-04-29T03:25:00.849Z,89.72
2018-04-29T03:26:01.277Z,88.67
2018-04-29T03:27:01.741Z,88.57
2018-04-29T03:28:02.169Z,88.67
2018-04-29T03:29:02.585Z,88.29
2018-04-29T03:30:03.013Z,87.81
2018-04-29T03:31:03.443Z,89.05
2018-04-29T03:32:03.874Z,88.09
2018-04-29T03:33:04.308Z,87.95
2018-04-29T03:34:04.745Z,87.86
2018-04-29T03:35:05.181Z,87.57
2018-04-29T03:36:05.605Z,87.48
2018-04-29T03:37:06.039Z,87.57
2018-04-29T03:38:06.470Z,87.81
2018-04-29T03:39:06.906Z,87.76
2018-04-29T03:40:07.337Z,87.00
2018-04-29T03:41:07.780Z,87.00
2018-04-29T03:42:08.205Z,87.00
2018-04-29T03:43:08.643Z,86.61
2018-04-29T03:44:09.064Z,86.90
2018-04-29T03:45:09.500Z,86.23
2018-04-29T03:46:09.931Z,86.43
2018-04-29T03:47:10.364Z,86.52
2018-04-29T03:48:10.797Z,86.23
2018-04-29T03:49:11.228Z,85.75
2018-04-29T03:50:11.661Z,85.85
2018-04-29T03:51:12.095Z,85.75
2018-04-29T03:52:12.532Z,85.75
2018-04-29T03:53:12.966Z,85.85
2018-04-29T03:54:13.385Z,85.57
2018-04-29T03:55:13.821Z,84.99
2018-04-29T03:56:14.262Z,85.09
2018-04-29T03:57:14.689Z,85.18
2018-04-29T03:58:15.119Z,84.80
2018-04-29T03:59:15.554Z,84.70
2018-04-29T04:00:15.984Z,84.61
2018-04-29T04:01:16.417Z,84.03
2018-04-29T04:02:16.865Z,84.03
2018-04-29T04:03:17.281Z,84.70
2018-04-29T04:04:17.717Z,84.80
2018-04-29T04:05:18.148Z,84.89
2018-04-29T04:06:18.579Z,84.42
2018-04-29T04:07:19.010Z,85.09
2018-04-29T04:08:19.448Z,85.28
2018-04-29T04:09:19.879Z,86.08
2018-04-29T04:10:20.334Z,86.33
2018-04-29T04:11:20.741Z,85.99
2018-04-29T04:12:21.175Z,86.37
2018-04-29T04:13:21.599Z,86.47
2018-04-29T04:14:22.037Z,86.85
2018-04-29T04:15:22.491Z,86.66
2018-04-29T04:16:22.926Z,86.18
2018-04-29T04:17:23.331Z,86.76
2018-04-29T04:18:23.771Z,86.57
2018-04-29T04:19:24.198Z,87.33
2018-04-29T04:20:24.633Z,87.62
2018-04-29T04:21:25.061Z,87.62
2018-04-29T04:22:25.509Z,87.04
2018-04-29T04:23:25.929Z,87.23
2018-04-29T04:24:26.365Z,87.76
2018-04-29T04:25:26.793Z,88.19
2018-04-29T04:26:27.231Z,88.52
2018-04-29T04:27:27.662Z,88.90
2018-04-29T04:28:28.092Z,88.04
2018-04-29T04:29:28.532Z,88.33
2018-04-29T04:30:28.991Z,88.52
2018-04-29T04:31:29.395Z,88.33
2018-04-29T04:32:29.831Z,88.62
2018-04-29T04:33:30.260Z,88.71
2018-04-29T04:34:30.695Z,88.81
2018-04-29T04:35:31.125Z,88.52
2018-04-29T04:36:31.560Z,88.62
2018-04-29T04:37:31.992Z,88.52
2018-04-29T04:38:32.430Z,88.62
2018-04-29T04:39:32.863Z,88.62
2018-04-29T04:40:33.289Z,88.90
2018-04-29T04:41:33.730Z,88.90
2018-04-29T04:42:34.194Z,89.33
2018-04-29T04:43:34.614Z,89.33
2018-04-29T04:44:35.035Z,89.62
2018-04-29T04:45:35.461Z,88.66
2018-04-29T04:46:35.896Z,88.90
2018-04-29T04:47:36.327Z,88.90
2018-04-29T04:48:36.765Z,89.00
2018-04-29T04:49:37.196Z,88.66
2018-04-29T04:50:37.732Z,89.09
2018-04-29T04:51:38.063Z,89.04
2018-04-29T04:52:38.504Z,89.43
2018-04-29T04:53:38.934Z,89.72
2018-04-29T04:54:39.361Z,89.14
2018-04-29T04:55:39.798Z,89.33
2018-04-29T04:56:40.230Z,90.09
2018-04-29T04:57:40.673Z,89.72
2018-04-29T04:58:41.106Z,90.09
2018-04-29T04:59:41.537Z,89.43
2018-04-29T05:00:41.967Z,90.05
2018-04-29T05:01:42.399Z,90.15
2018-04-29T05:02:42.837Z,89.95
2018-04-29T05:03:43.281Z,89.95
2018-04-29T05:04:43.701Z,89.38
2018-04-29T05:05:44.137Z,90.15
2018-04-29T05:06:44.576Z,89.53
2018-04-29T05:07:45.008Z,89.19
2018-04-29T05:08:45.443Z,88.86
2018-04-29T05:09:45.878Z,88.95
2018-04-29T05:10:46.306Z,88.86
2018-04-29T05:11:46.739Z,87.90
2018-04-29T05:12:47.177Z,87.14
2018-04-29T05:13:47.677Z,88.09
2018-04-29T05:14:48.042Z,87.90
2018-04-29T05:15:48.479Z,87.56
2018-04-29T05:16:48.907Z,87.95
2018-04-29T05:17:49.345Z,87.66
2018-04-29T05:18:49.776Z,87.95
2018-04-29T05:19:50.214Z,88.71
2018-04-29T05:20:50.650Z,88.04
2018-04-29T05:21:51.080Z,88.71
2018-04-29T05:22:51.600Z,87.90
2018-04-29T05:23:51.943Z,88.04
2018-04-29T05:24:52.381Z,88.71
2018-04-29T05:25:52.819Z,88.04
2018-04-29T05:26:53.251Z,88.52
2018-04-29T05:27:53.685Z,88.90
2018-04-29T05:28:54.119Z,88.71
2018-04-29T05:29:54.547Z,88.62
2018-04-29T05:30:54.981Z,88.62
2018-04-29T05:31:55.416Z,88.62
2018-04-29T05:32:55.856Z,88.71
2018-04-29T05:33:56.291Z,88.81
2018-04-29T05:34:56.719Z,88.43
2018-04-29T05:35:57.152Z,88.76
2018-04-29T05:36:57.588Z,89.23
2018-04-29T05:37:58.027Z,88.85
2018-04-29T05:39:01.070Z,88.66
2018-04-29T05:39:58.894Z,88.95
2018-04-29T05:40:59.350Z,89.14
2018-04-29T05:41:59.759Z,89.14
2018-04-29T05:43:00.192Z,88.47
2018-04-29T05:44:00.628Z,89.04
2018-04-29T05:45:01.065Z,89.62
2018-04-29T05:46:01.500Z,89.14
2018-04-29T05:47:01.927Z,89.62
2018-04-29T05:48:02.371Z,87.61
2018-04-29T05:49:02.801Z,89.57
2018-04-29T05:50:05.071Z,89.18
2018-04-29T05:51:05.571Z,89.47
2018-04-29T05:52:04.107Z,89.32
2018-04-29T05:53:04.552Z,89.23
2018-04-29T05:54:04.982Z,89.51
2018-04-29T05:55:05.409Z,90.19
2018-04-29T05:56:05.845Z,89.57
2018-04-29T05:57:06.278Z,90.09
2018-04-29T05:58:08.575Z,89.80
2018-04-29T05:59:07.146Z,89.42
2018-04-29T06:00:07.581Z,89.27
2018-04-29T06:01:08.023Z,89.18
2018-04-29T06:02:08.455Z,89.08
2018-04-29T06:03:08.888Z,89.18
2018-04-29T06:04:09.328Z,89.18
2018-04-29T06:05:09.759Z,89.47
2018-04-29T06:06:10.196Z,88.51
2018-04-29T06:07:10.629Z,88.55
2018-04-29T06:08:11.070Z,88.35
2018-04-29T06:09:11.527Z,88.22
2018-04-29T06:10:11.938Z,88.26
2018-04-29T06:11:12.377Z,88.17
2018-04-29T06:12:12.812Z,87.01
2018-04-29T06:13:13.250Z,87.68
2018-04-29T06:14:13.708Z,87.78
2018-04-29T06:15:14.126Z,87.21
2018-04-29T06:16:14.559Z,87.68
2018-04-29T06:17:14.993Z,87.78
2018-04-29T06:18:15.434Z,86.82
2018-04-29T06:19:15.871Z,87.25
2018-04-29T06:20:16.303Z,86.77
2018-04-29T06:21:16.745Z,85.91
2018-04-29T06:22:17.186Z,86.10
2018-04-29T06:23:17.618Z,85.58
2018-04-29T06:24:18.061Z,85.52
2018-04-29T06:25:18.488Z,84.85
2018-04-29T06:26:18.997Z,84.95
2018-04-29T06:27:19.370Z,84.75
2018-04-29T06:28:19.807Z,84.95
2018-04-29T06:29:20.249Z,84.56
2018-04-29T06:30:20.680Z,83.54
2018-04-29T06:31:21.118Z,83.07
2018-04-29T06:32:21.554Z,82.73
2018-04-29T06:33:21.994Z,82.43
2018-04-29T06:34:22.437Z,82.63
2018-04-29T06:35:22.870Z,81.96
2018-04-29T06:36:23.311Z,80.61
2018-04-29T06:37:23.747Z,80.27
2018-04-29T06:38:24.188Z,78.63
2018-04-29T06:39:24.623Z,77.38
2018-04-29T06:40:25.069Z,78.19
2018-04-29T06:41:25.507Z,78.00
2018-04-29T06:42:25.950Z,76.84
2018-04-29T06:43:26.384Z,76.88
2018-04-29T06:44:26.827Z,75.05
2018-04-29T06:45:27.282Z,75.19
2018-04-29T06:46:27.709Z,73.46
2018-04-29T06:47:28.148Z,72.88
2018-04-29T06:48:28.594Z,72.97
2018-04-29T06:49:29.029Z,71.24
2018-04-29T06:50:29.472Z,71.62
2018-04-29T06:51:29.947Z,70.82
2018-04-29T06:52:30.359Z,72.65
2018-04-29T06:53:30.855Z,72.30
2018-04-29T06:54:31.244Z,71.62
2018-04-29T06:55:31.682Z,71.85
2018-04-29T06:56:32.123Z,70.02
2018-04-29T06:57:32.577Z,69.87
2018-04-29T06:58:33.039Z,69.80
2018-04-29T06:59:33.456Z,66.82
2018-04-29T07:00:33.897Z,65.72
2018-04-29T07:01:34.336Z,65.66
2018-04-29T07:02:34.781Z,65.53
2018-04-29T07:03:35.224Z,65.53
2018-04-29T07:04:35.667Z,66.01
2018-04-29T07:05:36.120Z,67.19
2018-04-29T07:06:36.554Z,68.06
2018-04-29T07:07:37.002Z,68.80
2018-04-29T07:08:37.447Z,68.70
2018-04-29T07:09:37.889Z,68.64
2018-04-29T07:10:38.338Z,68.00
2018-04-29T07:11:38.772Z,66.65
2018-04-29T07:12:39.219Z,66.78
2018-04-29T07:13:39.662Z,65.81
2018-04-29T07:14:40.104Z,66.55
2018-04-29T07:15:40.545Z,66.65
2018-04-29T07:16:40.996Z,67.03
2018-04-29T07:17:41.433Z,66.75
2018-04-29T07:18:41.878Z,66.36
2018-04-29T07:19:42.316Z,66.07
2018-04-29T07:20:42.769Z,65.69
2018-04-29T07:21:43.210Z,65.40
2018-04-29T07:22:43.649Z,65.11
2018-04-29T07:23:44.097Z,65.20
2018-04-29T07:24:44.534Z,63.95
2018-04-29T07:25:44.988Z,63.18
2018-04-29T07:26:45.422Z,63.95
2018-04-29T07:27:45.869Z,63.18
2018-04-29T07:28:46.338Z,63.09
2018-04-29T07:29:46.757Z,63.82
2018-04-29T07:30:47.194Z,62.80
2018-04-29T07:31:47.655Z,63.60
2018-04-29T07:32:48.078Z,64.79
2018-04-29T07:33:48.541Z,64.28
2018-04-29T07:34:48.975Z,64.12
2018-04-29T07:35:49.412Z,63.92
2018-04-29T07:36:49.852Z,62.99
2018-04-29T07:37:50.296Z,62.60
2018-04-29T07:38:50.742Z,62.12
2018-04-29T07:39:51.194Z,61.29
2018-04-29T07:40:51.626Z,59.75
2018-04-29T07:41:52.067Z,59.45
2018-04-29T07:42:52.516Z,59.65
2018-04-29T07:43:52.958Z,59.58
2018-04-29T07:44:53.415Z,59.45
2018-04-29T07:45:53.847Z,58.88
2018-04-29T07:46:54.290Z,58.62
2018-04-29T07:47:54.736Z,57.87
2018-04-29T07:48:55.182Z,55.85
2018-04-29T07:49:55.626Z,56.36
2018-04-29T07:50:56.076Z,55.98
2018-04-29T07:51:56.518Z,55.52
2018-04-29T07:52:56.966Z,53.97
2018-04-29T07:53:57.502Z,54.07
2018-04-29T07:54:57.856Z,54.82
2018-04-29T07:55:58.316Z,54.94
2018-04-29T07:56:58.763Z,54.84
2018-04-29T07:57:59.199Z,54.91
2018-04-29T07:58:59.646Z,54.72
2018-04-29T08:00:00.093Z,54.72
2018-04-29T08:01:00.539Z,54.72
2018-04-29T08:02:00.987Z,54.82
2018-04-29T08:03:01.435Z,54.82
2018-04-29T08:04:01.881Z,54.31
2018-04-29T08:05:02.327Z,54.91
2018-04-29T08:06:02.777Z,56.33
2018-04-29T08:07:03.226Z,55.15
2018-04-29T08:08:03.668Z,56.11
2018-04-29T08:09:04.119Z,55.20
2018-04-29T08:10:04.565Z,54.53
2018-04-29T08:11:05.012Z,53.78
2018-04-29T08:12:05.460Z,54.05
2018-04-29T08:13:05.909Z,54.14
2018-04-29T08:14:06.364Z,53.63
2018-04-29T08:15:06.807Z,53.95
2018-04-29T08:16:07.259Z,53.27
2018-04-29T08:17:07.772Z,51.46
2018-04-29T08:18:08.157Z,51.75
2018-04-29T08:19:08.607Z,51.75
2018-04-29T08:20:09.055Z,50.98
2018-04-29T08:21:09.494Z,51.95
2018-04-29T08:22:09.959Z,52.40
2018-04-29T08:23:10.401Z,51.85
2018-04-29T08:24:10.849Z,52.57
2018-04-29T08:25:11.296Z,53.73
2018-04-29T08:26:11.749Z,53.17
2018-04-29T08:27:12.187Z,52.31
2018-04-29T08:28:12.641Z,51.82
2018-04-29T08:29:13.089Z,52.01
2018-04-29T08:30:13.899Z,51.53
2018-04-29T08:31:13.989Z,51.73
2018-04-29T08:32:14.426Z,52.40
2018-04-29T08:33:14.880Z,52.21
2018-04-29T08:34:15.319Z,51.22
2018-04-29T08:35:15.787Z,52.47
2018-04-29T08:36:16.241Z,52.16
2018-04-29T08:37:16.662Z,53.31
2018-04-29T08:38:17.109Z,53.48
2018-04-29T08:39:17.556Z,54.35
2018-04-29T08:40:18.003Z,54.66
2018-04-29T08:41:18.447Z,54.64
2018-04-29T08:42:18.892Z,54.93
2018-04-29T08:43:19.365Z,55.87
2018-04-29T08:44:19.777Z,55.96
2018-04-29T08:45:20.227Z,55.87
2018-04-29T08:46:20.666Z,55.93
2018-04-29T08:47:21.117Z,56.90
2018-04-29T08:48:21.559Z,57.64
2018-04-29T08:49:22.068Z,57.28
2018-04-29T08:50:22.455Z,57.57
2018-04-29T08:51:22.882Z,58.82
2018-04-29T08:52:23.334Z,59.56
2018-04-29T08:53:23.767Z,60.91
2018-04-29T08:54:24.222Z,62.00
2018-04-29T08:55:24.657Z,63.70
2018-04-29T08:56:25.113Z,63.73
2018-04-29T08:57:25.553Z,62.41
2018-04-29T08:58:25.997Z,61.35
2018-04-29T08:59:26.434Z,58.32
2018-04-29T09:00:26.879Z,55.35
2018-04-29T09:01:27.326Z,54.85
2018-04-29T09:02:27.773Z,53.04
2018-04-29T09:03:28.218Z,52.08
2018-04-29T09:04:28.663Z,51.90
2018-04-29T09:05:29.114Z,50.65
2018-04-29T09:06:29.561Z,50.62
2018-04-29T09:07:30.017Z,48.69
2018-04-29T09:08:30.462Z,47.86
2018-04-29T09:09:30.913Z,45.79
2018-04-29T09:10:31.370Z,44.13
2018-04-29T09:11:31.837Z,41.46
2018-04-29T09:12:32.290Z,40.00
2018-04-29T09:13:32.739Z,40.73
2018-04-29T09:14:33.192Z,40.78
2018-04-29T09:15:33.649Z,38.98
2018-04-29T09:16:34.112Z,37.47
2018-04-29T09:17:34.637Z,35.96
2018-04-29T09:18:35.033Z,34.44
2018-04-29T09:19:35.509Z,35.39
2018-04-29T09:20:35.970Z,36.52
2018-04-29T09:21:36.433Z,34.91
2018-04-29T09:22:36.893Z,34.41
2018-04-29T09:23:37.355Z,33.39
2018-04-29T09:24:37.821Z,33.20
2018-04-29T09:25:38.286Z,32.84
2018-04-29T09:26:38.765Z,32.17
2018-04-29T09:27:39.228Z,30.58
2018-04-29T09:28:39.693Z,32.94
2018-04-29T09:29:40.163Z,30.46
2018-04-29T09:30:40.626Z,30.63
2018-04-29T09:31:41.121Z,28.00
2018-04-29T09:32:41.576Z,27.84
2018-04-29T09:33:42.040Z,25.98
2018-04-29T09:34:42.508Z,26.64
2018-04-29T09:35:42.987Z,27.11
2018-04-29T09:36:43.452Z,27.80
2018-04-29T09:37:43.925Z,27.38
2018-04-29T09:38:44.424Z,28.33
2018-04-29T09:39:44.890Z,28.59
2018-04-29T09:40:45.341Z,26.65
2018-04-29T09:41:45.804Z,26.61
2018-04-29T09:42:46.287Z,26.64
2018-04-29T09:43:46.759Z,27.11
2018-04-29T09:44:47.233Z,26.58
2018-04-29T09:45:47.692Z,26.00
2018-04-29T09:46:48.170Z,24.71
2018-04-29T09:47:48.643Z,25.78
2018-04-29T09:48:49.155Z,25.37
2018-04-29T09:49:49.590Z,26.43
2018-04-29T09:50:50.052Z,27.44
2018-04-29T09:51:50.532Z,28.39
2018-04-29T09:52:50.998Z,28.09
2018-04-29T09:53:51.473Z,28.63
2018-04-29T09:54:51.942Z,26.49
2018-04-29T09:55:52.421Z,26.67
2018-04-29T09:56:52.893Z,26.97
2018-04-29T09:57:53.442Z,27.26
2018-04-29T09:58:53.831Z,29.75
2018-04-29T09:59:54.326Z,28.22
2018-04-29T10:00:54.801Z,29.69
2018-04-29T10:01:55.266Z,30.42
2018-04-29T10:02:55.731Z,28.92
2018-04-29T10:03:56.203Z,27.97
2018-04-29T10:04:56.676Z,26.54
2018-04-29T10:05:57.146Z,25.23
2018-04-29T10:06:57.620Z,27.88
2018-04-29T10:07:58.090Z,27.98
2018-04-29T10:08:58.567Z,29.06
2018-04-29T10:09:59.038Z,28.42
2018-04-29T10:10:59.519Z,26.71
2018-04-29T10:11:59.985Z,26.49
2018-04-29T10:13:00.455Z,28.33
2018-04-29T10:14:00.932Z,25.95
2018-04-29T10:15:01.424Z,25.34
2018-04-29T10:16:01.881Z,26.12
2018-04-29T10:17:02.348Z,26.11
2018-04-29T10:18:02.824Z,26.67
2018-04-29T10:19:03.416Z,26.38
2018-04-29T10:20:03.779Z,26.63
2018-04-29T10:21:04.243Z,30.29
2018-04-29T10:22:04.711Z,27.94
2018-04-29T10:23:05.196Z,28.14
2018-04-29T10:24:05.656Z,26.73
2018-04-29T10:25:06.133Z,24.32
2018-04-29T10:26:06.616Z,23.65
2018-04-29T10:27:07.090Z,24.01
2018-04-29T10:28:07.555Z,24.29
2018-04-29T10:29:08.022Z,25.17
2018-04-29T10:30:08.508Z,26.50
2018-04-29T10:31:08.974Z,27.03
2018-04-29T10:32:09.452Z,24.81
2018-04-29T10:33:09.921Z,26.34
2018-04-29T10:34:10.395Z,26.44
2018-04-29T10:35:10.868Z,24.80
2018-04-29T10:36:11.344Z,23.95
2018-04-29T10:37:11.818Z,23.57
2018-04-29T10:38:12.291Z,24.70
2018-04-29T10:39:12.767Z,23.93
2018-04-29T10:40:13.239Z,23.57
2018-04-29T10:41:13.714Z,23.55
2018-04-29T10:42:14.208Z,22.78
2018-04-29T10:43:14.668Z,25.55
2018-04-29T10:44:15.148Z,25.12
2018-04-29T10:45:15.615Z,24.07
2018-04-29T10:46:16.095Z,26.20
2018-04-29T10:47:16.566Z,26.04
2018-04-29T10:48:17.048Z,24.77
2018-04-29T10:49:17.527Z,24.62
2018-04-29T10:50:17.993Z,23.93
2018-04-29T10:51:18.492Z,24.11
2018-04-29T10:52:19.025Z,24.73
2018-04-29T10:53:19.429Z,23.56
2018-04-29T10:54:19.902Z,23.57
2018-04-29T10:55:20.372Z,22.58
2018-04-29T10:56:20.860Z,23.24
2018-04-29T10:57:21.330Z,23.55
2018-04-29T10:58:21.805Z,23.53
2018-04-29T10:59:22.297Z,24.09
2018-04-29T11:00:22.757Z,24.71
2018-04-29T11:01:23.318Z,24.15
2018-04-29T11:02:23.708Z,22.78
2018-04-29T11:03:24.217Z,22.12
2018-04-29T11:04:24.708Z,22.22
2018-04-29T11:05:25.149Z,22.75
2018-04-29T11:06:25.608Z,23.42
2018-04-29T11:07:26.082Z,24.63
2018-04-29T11:08:26.559Z,26.24
2018-04-29T11:09:27.025Z,28.44
2018-04-29T11:10:27.503Z,29.13
2018-04-29T11:11:27.972Z,29.30
2018-04-29T11:12:28.440Z,28.65
2018-04-29T11:13:28.916Z,28.08
2018-04-29T11:14:29.389Z,27.61
2018-04-29T11:15:29.883Z,27.05
2018-04-29T11:16:30.331Z,26.28
2018-04-29T11:17:30.841Z,26.10
2018-04-29T11:18:31.268Z,25.56
2018-04-29T11:19:31.776Z,25.54
2018-04-29T11:20:32.217Z,24.68
2018-04-29T11:21:32.714Z,24.77
2018-04-29T11:22:33.161Z,25.50
2018-04-29T11:23:33.623Z,25.27
2018-04-29T11:24:34.100Z,24.68
2018-04-29T11:25:34.561Z,24.21
2018-04-29T11:26:35.038Z,24.41
2018-04-29T11:27:35.514Z,24.98
2018-04-29T11:28:36.022Z,26.21
2018-04-29T11:29:36.449Z,26.10
2018-04-29T11:30:36.914Z,25.37
2018-04-29T11:31:37.413Z,25.37
2018-04-29T11:32:37.864Z,25.44
2018-04-29T11:33:38.340Z,25.44
2018-04-29T11:34:38.837Z,26.32
2018-04-29T11:35:39.280Z,26.20
2018-04-29T11:36:39.852Z,27.91
2018-04-29T11:37:40.228Z,29.07
2018-04-29T11:38:40.689Z,30.29
2018-04-29T11:39:41.158Z,32.76
2018-04-29T11:40:41.694Z,34.93
2018-04-29T11:41:42.089Z,35.72
2018-04-29T11:42:42.561Z,35.24
2018-04-29T11:43:43.024Z,36.10
2018-04-29T11:44:43.487Z,36.36
2018-04-29T11:45:43.940Z,37.13
2018-04-29T11:46:44.434Z,37.41
2018-04-29T11:47:44.854Z,38.07
2018-04-29T11:48:45.326Z,38.37
2018-04-29T11:49:45.775Z,38.73
2018-04-29T11:50:46.230Z,40.46
2018-04-29T11:51:46.698Z,40.36
2018-04-29T11:52:47.139Z,39.88
2018-04-29T11:53:47.598Z,40.36
2018-04-29T11:54:48.051Z,40.73
2018-04-29T11:55:48.496Z,41.02
2018-04-29T11:56:48.971Z,40.53
2018-04-29T11:57:49.420Z,40.83
2018-04-29T11:58:49.859Z,40.63
2018-04-29T11:59:50.311Z,41.60
2018-04-29T12:00:50.758Z,42.45
2018-04-29T12:01:51.275Z,41.48
2018-04-29T12:02:51.665Z,41.77
2018-04-29T12:03:52.113Z,41.58
2018-04-29T12:04:52.558Z,41.77
2018-04-29T12:05:53.006Z,42.55
2018-04-29T12:06:53.463Z,42.16
2018-04-29T12:07:53.903Z,43.18
2018-04-29T12:08:54.352Z,43.68
2018-04-29T12:09:54.803Z,43.51
2018-04-29T12:10:55.252Z,43.03
2018-04-29T12:11:55.697Z,42.45
2018-04-29T12:12:56.159Z,42.16
2018-04-29T12:13:56.593Z,42.45
2018-04-29T12:14:57.042Z,42.16
2018-04-29T12:15:57.495Z,42.55
2018-04-29T12:16:57.934Z,41.89
2018-04-29T12:17:58.387Z,41.70
2018-04-29T12:18:58.834Z,41.11
2018-04-29T12:19:59.281Z,41.14
2018-04-29T12:20:59.727Z,40.84
2018-04-29T12:22:00.214Z,40.63
2018-04-29T12:23:00.627Z,41.87
2018-04-29T12:24:01.069Z,42.35
2018-04-29T12:25:01.524Z,41.50
2018-04-29T12:26:01.970Z,41.50
2018-04-29T12:27:02.414Z,41.79
2018-04-29T12:28:02.867Z,41.41
2018-04-29T12:29:03.308Z,41.60
2018-04-29T12:30:03.758Z,41.11
2018-04-29T12:31:04.208Z,40.63
2018-04-29T12:32:07.372Z,41.02
2018-04-29T12:33:05.096Z,41.21
2018-04-29T12:34:05.545Z,41.11
2018-04-29T12:35:05.992Z,41.24
2018-04-29T12:36:06.452Z,40.92
2018-04-29T12:37:06.884Z,40.44
2018-04-29T12:38:07.337Z,41.21
2018-04-29T12:39:07.813Z,41.60
2018-04-29T12:40:08.238Z,40.92
2018-04-29T12:41:08.687Z,40.83
2018-04-29T12:42:09.124Z,40.63
2018-04-29T12:43:09.579Z,41.11
2018-04-29T12:44:10.015Z,41.11
2018-04-29T12:45:10.467Z,41.31
2018-04-29T12:46:10.933Z,41.41
2018-04-29T12:47:11.409Z,41.99
2018-04-29T12:48:11.805Z,41.02
2018-04-29T12:49:12.251Z,41.11
2018-04-29T12:50:12.724Z,41.89
2018-04-29T12:51:13.162Z,41.70
2018-04-29T12:52:13.674Z,41.82
2018-04-29T12:53:14.032Z,41.70
2018-04-29T12:54:14.496Z,41.52
2018-04-29T12:55:14.976Z,41.11
2018-04-29T12:56:15.394Z,41.79
2018-04-29T12:57:15.820Z,42.18
2018-04-29T12:58:16.264Z,41.60